Time;durP1;ratioP1;P1;durP2;ratioP2;P2;SDS_P1;SDS_P2;PMS_P1;PMS_P2;Temp;Humidity;BMP_temperature;BMP_pressure;BME280_temperature;BME280_humidity;BME280_pressure;Samples;Min_cycle;Max_cycle;Signal;HPM_P1;HPM_P2
2022/10/02 00:01:41;;;;;;;;;;;13.50;99.90;;;;;;4181215;28;19975;-57
2022/10/02 00:04:01;;;;;;;;;;;13.50;99.90;;;;;;4181729;28;19963;-57
2022/10/02 00:06:23;;;;;;;;;;;13.50;99.90;;;;;;4181434;28;20295;-57
2022/10/02 00:08:44;;;;;;;;;;;13.50;99.90;;;;;;4180935;28;19970;-58
2022/10/02 00:11:12;;;;;;;;;;;13.50;99.90;;;;;;4181457;28;19935;-57
2022/10/02 00:13:36;;;;;;;;;;;13.50;99.90;;;;;;4181391;28;19932;-57
2022/10/02 00:15:56;;;;;;;;;;;13.40;99.90;;;;;;4180992;28;20172;-58
2022/10/02 00:18:23;;;;;;;;;;;13.40;99.90;;;;;;4181563;28;20018;-57
2022/10/02 00:20:48;;;;;;;;;;;13.30;99.90;;;;;;4181302;28;19932;-57
2022/10/02 00:23:29;;;;;;;;;;;13.30;99.90;;;;;;4181057;28;20058;-57
2022/10/02 00:26:02;;;;;;;;;;;13.20;99.90;;;;;;4180493;28;20445;-57
2022/10/02 00:28:42;;;;;;;;;;;13.30;99.90;;;;;;4181175;28;19936;-57
2022/10/02 00:31:18;;;;;;;;;;;13.30;99.90;;;;;;4180976;28;19959;-57
2022/10/02 00:33:38;;;;;;;;;;;13.30;99.90;;;;;;4185029;28;19932;-57
2022/10/02 00:36:03;;;;;;;;;;;13.30;99.90;;;;;;4197459;28;19951;-58
2022/10/02 00:38:43;;;;;;;;;;;13.30;99.90;;;;;;4197584;28;19974;-56
2022/10/02 00:41:06;;;;;;;;;;;13.30;99.90;;;;;;4197468;28;20485;-57
2022/10/02 00:43:33;;;;;;;;;;;13.30;99.90;;;;;;4197411;28;19940;-57
2022/10/02 00:46:08;;;;;;;;;;;13.40;99.90;;;;;;4197511;28;19931;-58
2022/10/02 00:48:38;;;;;;;;;;;13.50;99.90;;;;;;4197287;28;19939;-58
2022/10/02 00:51:04;;;;;;;;;;;13.50;99.90;;;;;;4196991;28;19974;-58
2022/10/02 00:53:43;;;;;;;;;;;13.70;99.90;;;;;;4197211;28;19935;-57
2022/10/02 00:56:22;;;;;;;;;;;13.70;99.90;;;;;;4197350;28;19974;-58
2022/10/02 00:58:46;;;;;;;;;;;13.70;99.90;;;;;;4195670;28;19932;-57
2022/10/02 01:01:18;;;;;;;;;;;13.70;99.90;;;;;;4196926;28;19998;-57
2022/10/02 01:03:43;;;;;;;;;;;13.70;99.90;;;;;;4197154;28;19990;-57
2022/10/02 01:06:03;;;;;;;;;;;13.70;99.90;;;;;;4196809;28;20041;-56
2022/10/02 01:08:24;;;;;;;;;;;13.50;99.90;;;;;;4196626;28;20417;-57
2022/10/02 01:10:44;;;;;;;;;;;13.50;99.90;;;;;;4196974;28;19931;-56
2022/10/02 01:13:05;;;;;;;;;;;13.50;99.90;;;;;;4195685;28;19950;-57
2022/10/02 01:15:28;;;;;;;;;;;13.40;99.90;;;;;;4197087;28;20009;-57
2022/10/02 01:17:52;;;;;;;;;;;13.30;99.90;;;;;;4196615;28;19978;-57
2022/10/02 01:20:18;;;;;;;;;;;13.30;99.90;;;;;;4197103;28;20364;-57
2022/10/02 01:23:03;;;;;;;;;;;13.30;99.90;;;;;;4196743;28;19935;-57
2022/10/02 01:25:24;;;;;;;;;;;13.30;99.90;;;;;;4196430;28;19953;-58
2022/10/02 01:27:45;;;;;;;;;;;13.30;99.90;;;;;;4196398;28;20303;-57
2022/10/02 01:30:07;;;;;;;;;;;13.40;99.90;;;;;;4196400;28;20302;-57
2022/10/02 01:32:28;;;;;;;;;;;13.30;99.90;;;;;;4196307;28;19935;-57
2022/10/02 01:34:50;;;;;;;;;;;13.30;99.90;;;;;;4196303;28;20397;-57
2022/10/02 01:37:11;;;;;;;;;;;13.30;99.90;;;;;;4196391;28;19936;-58
2022/10/02 01:39:32;;;;;;;;;;;13.20;99.90;;;;;;4196638;28;20474;-56
2022/10/02 01:41:54;;;;;;;;;;;13.20;99.90;;;;;;4196435;28;19931;-57
2022/10/02 01:44:15;;;;;;;;;;;13.30;99.90;;;;;;4196296;28;19935;-57
2022/10/02 01:46:38;;;;;;;;;;;13.20;99.90;;;;;;4196348;28;19974;-57
2022/10/02 01:49:14;;;;;;;;;;;13.20;99.90;;;;;;4195679;28;20045;-57
2022/10/02 01:52:07;;;;;;;;;;;13.20;99.90;;;;;;4196353;28;19990;-57
2022/10/02 01:54:44;;;;;;;;;;;13.20;99.90;;;;;;4170211;28;19982;-57
2022/10/02 01:57:24;;;;;;;;;;;13.20;99.90;;;;;;4195913;28;19994;-56
2022/10/02 02:00:12;;;;;;;;;;;13.20;99.90;;;;;;4196058;28;19947;-57
2022/10/02 02:02:32;;;;;;;;;;;13.10;99.90;;;;;;4195893;28;19932;-57
2022/10/02 02:04:56;;;;;;;;;;;13.10;99.90;;;;;;4196309;28;19947;-56
2022/10/02 02:07:34;;;;;;;;;;;13.10;99.90;;;;;;4195785;28;19934;-57
2022/10/02 02:09:59;;;;;;;;;;;13.20;99.90;;;;;;4195897;28;20383;-57
2022/10/02 02:12:38;;;;;;;;;;;13.10;99.90;;;;;;4196003;28;19974;-57
2022/10/02 02:15:02;;;;;;;;;;;13.20;99.90;;;;;;4196092;28;19947;-56
2022/10/02 02:17:22;;;;;;;;;;;13.20;99.90;;;;;;4195660;28;20481;-56
2022/10/02 02:19:47;;;;;;;;;;;13.20;99.90;;;;;;4196223;28;19974;-57
2022/10/02 02:22:17;;;;;;;;;;;13.20;99.90;;;;;;4195890;28;19939;-58
2022/10/02 02:24:41;;;;;;;;;;;13.30;99.90;;;;;;4195849;28;20300;-57
2022/10/02 02:27:03;;;;;;;;;;;13.40;99.90;;;;;;4206819;28;20008;-56
2022/10/02 02:29:25;;;;;;;;;;;13.40;99.90;;;;;;4212377;28;20295;-57
2022/10/02 02:31:51;;;;;;;;;;;13.50;99.90;;;;;;4212503;28;19997;-57
2022/10/02 02:34:14;;;;;;;;;;;13.40;99.90;;;;;;4202861;28;19936;-57
2022/10/02 02:36:36;;;;;;;;;;;13.40;99.90;;;;;;4195938;28;20003;-57
2022/10/02 02:38:59;;;;;;;;;;;13.40;99.90;;;;;;4195511;28;19936;-57
2022/10/02 02:41:23;;;;;;;;;;;13.50;99.90;;;;;;4195943;28;19936;-57
2022/10/02 02:43:45;;;;;;;;;;;13.50;99.90;;;;;;4195738;28;19931;-56
2022/10/02 02:46:08;;;;;;;;;;;13.50;99.90;;;;;;4195748;28;19931;-57
2022/10/02 02:48:31;;;;;;;;;;;13.40;99.90;;;;;;4195903;28;20295;-57
2022/10/02 02:50:56;;;;;;;;;;;13.40;99.90;;;;;;4195352;28;19932;-56
2022/10/02 02:53:23;;;;;;;;;;;13.30;99.90;;;;;;4195275;28;19970;-57
2022/10/02 02:55:54;;;;;;;;;;;13.30;99.90;;;;;;4196015;28;20363;-57
2022/10/02 02:58:16;;;;;;;;;;;13.30;99.90;;;;;;4195344;28;19931;-57
2022/10/02 03:00:37;;;;;;;;;;;13.30;99.90;;;;;;4197664;28;20347;-57
2022/10/02 03:02:57;;;;;;;;;;;13.30;99.90;;;;;;4199076;28;20268;-57
2022/10/02 03:05:18;;;;;;;;;;;13.20;99.90;;;;;;4198994;28;19935;-57
2022/10/02 03:07:39;;;;;;;;;;;13.20;99.90;;;;;;4198765;28;19978;-57
2022/10/02 03:10:07;;;;;;;;;;;13.20;99.90;;;;;;4198822;28;19935;-57
2022/10/02 03:12:33;;;;;;;;;;;13.30;99.90;;;;;;4198466;28;20022;-57
2022/10/02 03:14:56;;;;;;;;;;;13.30;99.90;;;;;;4198670;28;19981;-57
2022/10/02 03:17:35;;;;;;;;;;;13.30;99.90;;;;;;4198703;28;20539;-57
2022/10/02 03:19:56;;;;;;;;;;;13.30;99.90;;;;;;4198583;28;20330;-57
2022/10/02 03:22:23;;;;;;;;;;;13.30;99.90;;;;;;4198773;28;19934;-57
2022/10/02 03:25:03;;;;;;;;;;;13.30;99.90;;;;;;4197123;28;20023;-57
2022/10/02 03:27:30;;;;;;;;;;;13.30;99.90;;;;;;4198173;28;20311;-57
2022/10/02 03:30:01;;;;;;;;;;;13.30;99.90;;;;;;4198738;28;19986;-57
2022/10/02 03:32:23;;;;;;;;;;;13.30;99.90;;;;;;4198509;28;20015;-57
2022/10/02 03:34:43;;;;;;;;;;;13.30;99.90;;;;;;4198631;28;20405;-57
2022/10/02 03:37:05;;;;;;;;;;;13.30;99.90;;;;;;4198312;28;20027;-57
2022/10/02 03:39:25;;;;;;;;;;;13.30;99.90;;;;;;4198496;28;19983;-56
2022/10/02 03:41:46;;;;;;;;;;;13.30;99.90;;;;;;4198541;28;20264;-57
2022/10/02 03:44:06;;;;;;;;;;;13.30;99.90;;;;;;4198107;28;19974;-57
2022/10/02 03:46:26;;;;;;;;;;;13.20;99.90;;;;;;4198236;28;19935;-56
2022/10/02 03:48:47;;;;;;;;;;;13.20;99.90;;;;;;4198563;28;19935;-57
2022/10/02 03:51:08;;;;;;;;;;;13.20;99.90;;;;;;4198147;28;19936;-58
2022/10/02 03:53:33;;;;;;;;;;;13.10;99.90;;;;;;4198129;28;19978;-57
2022/10/02 03:55:56;;;;;;;;;;;13.10;99.90;;;;;;4198060;28;19935;-56
2022/10/02 03:58:17;;;;;;;;;;;13.10;99.90;;;;;;4198128;28;19940;-58
2022/10/02 04:00:40;;;;;;;;;;;13.10;99.90;;;;;;4197997;28;19935;-57
2022/10/02 04:03:03;;;;;;;;;;;13.10;99.90;;;;;;4197784;28;19943;-57
2022/10/02 04:05:26;;;;;;;;;;;13.10;99.90;;;;;;4197853;28;19932;-57
2022/10/02 04:07:48;;;;;;;;;;;13.20;99.90;;;;;;4197642;28;20453;-57
2022/10/02 04:10:12;;;;;;;;;;;13.20;99.90;;;;;;4203652;28;20453;-57
2022/10/02 04:12:36;;;;;;;;;;;13.20;99.90;;;;;;4197018;28;20258;-57
2022/10/02 04:15:03;;;;;;;;;;;13.10;99.90;;;;;;4197592;28;20015;-57
2022/10/02 04:17:30;;;;;;;;;;;13.10;99.90;;;;;;4197901;28;19947;-57
2022/10/02 04:19:52;;;;;;;;;;;13.20;99.90;;;;;;4197493;28;19960;-57
2022/10/02 04:22:21;;;;;;;;;;;13.20;99.90;;;;;;4196403;28;20291;-58
2022/10/02 04:24:44;;;;;;;;;;;13.20;99.90;;;;;;4197880;28;19931;-57
2022/10/02 04:27:15;;;;;;;;;;;13.20;99.90;;;;;;4197302;28;19934;-57
2022/10/02 04:29:54;;;;;;;;;;;13.20;99.90;;;;;;4197839;28;20015;-57
2022/10/02 04:32:16;;;;;;;;;;;13.20;99.90;;;;;;4197860;28;19971;-56
2022/10/02 04:34:36;;;;;;;;;;;13.20;99.90;;;;;;4196699;28;19967;-58
2022/10/02 04:37:03;;;;;;;;;;;13.20;99.90;;;;;;4196721;28;19958;-57
2022/10/02 04:39:36;;;;;;;;;;;13.20;99.90;;;;;;4197242;28;19934;-57
2022/10/02 04:42:17;;;;;;;;;;;13.20;99.90;;;;;;4197299;28;19947;-57
2022/10/02 04:44:44;;;;;;;;;;;13.20;99.90;;;;;;4197310;28;20382;-57
2022/10/02 04:47:23;;;;;;;;;;;13.20;99.90;;;;;;4197645;28;19932;-56
2022/10/02 04:49:43;;;;;;;;;;;13.20;99.90;;;;;;4197756;28;19932;-58
2022/10/02 04:52:04;;;;;;;;;;;13.20;99.90;;;;;;4197191;28;19931;-57
2022/10/02 04:54:27;;;;;;;;;;;13.10;99.90;;;;;;4196880;28;20300;-57
2022/10/02 04:56:54;;;;;;;;;;;13.10;99.90;;;;;;4197246;28;19932;-57
2022/10/02 04:59:21;;;;;;;;;;;13.20;99.90;;;;;;4197055;28;19955;-57
2022/10/02 05:02:00;;;;;;;;;;;13.20;99.90;;;;;;4196998;28;19932;-57
2022/10/02 05:04:41;;;;;;;;;;;13.20;99.90;;;;;;4197061;28;19938;-57
2022/10/02 05:07:01;;;;;;;;;;;13.20;99.90;;;;;;4196767;28;19951;-57
2022/10/02 05:09:22;;;;;;;;;;;13.20;99.90;;;;;;4197143;28;19936;-57
2022/10/02 05:12:05;;;;;;;;;;;13.30;99.90;;;;;;4196856;28;20035;-57
2022/10/02 05:14:44;;;;;;;;;;;13.20;99.90;;;;;;4196957;28;19971;-57
2022/10/02 05:17:11;;;;;;;;;;;13.30;99.90;;;;;;4196628;28;20015;-58
2022/10/02 05:19:31;;;;;;;;;;;13.20;99.90;;;;;;4197116;28;19931;-57
2022/10/02 05:21:58;;;;;;;;;;;13.20;99.90;;;;;;4196699;28;20055;-57
2022/10/02 05:24:37;;;;;;;;;;;13.10;99.90;;;;;;4180292;28;19936;-58
2022/10/02 05:27:05;;;;;;;;;;;13.20;99.90;;;;;;4179834;28;20343;-56
2022/10/02 05:29:36;;;;;;;;;;;13.20;99.90;;;;;;4180325;28;19978;-57
2022/10/02 05:31:57;;;;;;;;;;;13.10;99.90;;;;;;4180176;28;20041;-57
2022/10/02 05:34:28;;;;;;;;;;;13.10;99.90;;;;;;4180116;28;19959;-57
2022/10/02 05:36:55;;;;;;;;;;;13.10;99.90;;;;;;4179839;28;19940;-57
2022/10/02 05:39:27;;;;;;;;;;;13.20;99.90;;;;;;4179852;28;19931;-57
2022/10/02 05:42:05;;;;;;;;;;;13.20;99.90;;;;;;4193913;28;19998;-57
2022/10/02 05:44:34;;;;;;;;;;;13.20;99.90;;;;;;4196759;28;20290;-57
2022/10/02 05:47:00;;;;;;;;;;;13.30;99.90;;;;;;4192208;28;19935;-57
2022/10/02 05:49:30;;;;;;;;;;;13.30;99.90;;;;;;4186806;28;19940;-57
2022/10/02 05:51:52;;;;;;;;;;;13.30;99.90;;;;;;4193300;28;19934;-57
2022/10/02 05:54:38;;;;;;;;;;;13.30;99.90;;;;;;4195893;28;20031;-57
2022/10/02 05:57:03;;;;;;;;;;;13.40;99.90;;;;;;4189434;28;19983;-58
2022/10/02 05:59:39;;;;;;;;;;;13.40;99.90;;;;;;4184341;28;20385;-57
2022/10/02 06:02:03;;;;;;;;;;;13.40;99.90;;;;;;4196135;28;19935;-57
2022/10/02 06:04:30;;;;;;;;;;;13.40;99.90;;;;;;4196139;28;19939;-57
2022/10/02 06:06:53;;;;;;;;;;;13.40;99.90;;;;;;4196344;28;19970;-57
2022/10/02 06:09:24;;;;;;;;;;;13.40;99.90;;;;;;4181978;28;19935;-56
2022/10/02 06:11:49;;;;;;;;;;;13.40;99.90;;;;;;4193430;28;20428;-57
2022/10/02 06:14:29;;;;;;;;;;;13.40;99.90;;;;;;4189802;28;19981;-57
2022/10/02 06:16:56;;;;;;;;;;;13.40;99.90;;;;;;4187671;28;19964;-57
2022/10/02 06:19:28;;;;;;;;;;;13.50;99.90;;;;;;4190542;28;19943;-57
2022/10/02 06:21:55;;;;;;;;;;;13.50;99.90;;;;;;4195004;28;19935;-57
2022/10/02 06:24:51;;;;;;;;;;;13.50;99.90;;;;;;4185750;28;19931;-57
2022/10/02 06:27:15;;;;;;;;;;;13.60;99.90;;;;;;4166769;28;19931;-57
2022/10/02 06:29:40;;;;;;;;;;;13.60;99.90;;;;;;4191487;28;19974;-57
2022/10/02 06:32:03;;;;;;;;;;;13.70;99.90;;;;;;4191094;28;19943;-57
2022/10/02 06:34:25;;;;;;;;;;;13.70;99.90;;;;;;4187839;28;20441;-57
2022/10/02 06:37:03;;;;;;;;;;;13.80;99.90;;;;;;4195981;28;20050;-57
2022/10/02 06:39:27;;;;;;;;;;;13.80;99.90;;;;;;4192384;28;19940;-56
2022/10/02 06:41:53;;;;;;;;;;;13.80;99.90;;;;;;4194010;28;19975;-57
2022/10/02 06:44:17;;;;;;;;;;;13.80;99.90;;;;;;4195258;28;19974;-57
2022/10/02 06:47:02;;;;;;;;;;;13.90;99.90;;;;;;4195839;28;20406;-57
2022/10/02 06:49:41;;;;;;;;;;;13.90;99.90;;;;;;4193914;28;20451;-57
2022/10/02 06:52:19;;;;;;;;;;;14.00;99.90;;;;;;4195083;28;20291;-57
2022/10/02 06:54:52;;;;;;;;;;;14.00;99.90;;;;;;4196142;28;19965;-58
2022/10/02 06:57:15;;;;;;;;;;;14.00;99.90;;;;;;4195191;28;19935;-57
2022/10/02 06:59:55;;;;;;;;;;;14.00;99.90;;;;;;4195483;28;19932;-57
2022/10/02 07:02:32;;;;;;;;;;;14.10;99.90;;;;;;4189021;28;20445;-57
2022/10/02 07:05:23;;;;;;;;;;;14.10;99.90;;;;;;4192521;28;19978;-57
2022/10/02 07:07:56;;;;;;;;;;;14.20;99.90;;;;;;4183210;28;19978;-57
2022/10/02 07:10:16;;;;;;;;;;;14.20;99.90;;;;;;4178876;28;20040;-58
2022/10/02 07:12:46;;;;;;;;;;;14.30;99.90;;;;;;4179176;28;19932;-57
2022/10/02 07:15:17;;;;;;;;;;;14.30;99.90;;;;;;4185104;28;19954;-57
2022/10/02 07:17:53;;;;;;;;;;;14.40;99.90;;;;;;4195919;28;19932;-58
2022/10/02 07:20:33;;;;;;;;;;;14.40;99.90;;;;;;4195266;28;20346;-57
2022/10/02 07:23:12;;;;;;;;;;;14.50;99.90;;;;;;4194187;28;19931;-58
2022/10/02 07:25:45;;;;;;;;;;;14.50;99.90;;;;;;4195466;28;19975;-58
2022/10/02 07:28:24;;;;;;;;;;;14.40;99.90;;;;;;4185126;28;19974;-58
2022/10/02 07:30:48;;;;;;;;;;;14.50;99.90;;;;;;4189668;28;20039;-57
2022/10/02 07:33:29;;;;;;;;;;;14.40;99.90;;;;;;4195500;28;20433;-57
2022/10/02 07:35:56;;;;;;;;;;;14.50;99.90;;;;;;4194115;28;20288;-58
2022/10/02 07:38:17;;;;;;;;;;;14.50;99.90;;;;;;4195300;28;19931;-58
2022/10/02 07:40:49;;;;;;;;;;;14.50;99.90;;;;;;4195183;28;19932;-58
2022/10/02 07:43:28;;;;;;;;;;;14.60;99.90;;;;;;4195423;28;20047;-57
2022/10/02 07:46:08;;;;;;;;;;;14.60;99.90;;;;;;4189754;28;20024;-57
2022/10/02 07:48:44;;;;;;;;;;;14.60;99.90;;;;;;4194173;28;19971;-58
2022/10/02 07:51:05;;;;;;;;;;;14.70;99.90;;;;;;4198100;28;19955;-57
2022/10/02 07:53:25;;;;;;;;;;;14.70;99.90;;;;;;4191130;28;19966;-57
2022/10/02 07:55:51;;;;;;;;;;;14.80;99.90;;;;;;4181453;28;20016;-57
2022/10/02 07:58:13;;;;;;;;;;;14.80;99.90;;;;;;4182757;28;19994;-57
2022/10/02 08:00:37;;;;;;;;;;;14.90;99.90;;;;;;4189713;28;19931;-57
2022/10/02 08:02:57;;;;;;;;;;;15.00;99.90;;;;;;4187738;28;19989;-57
2022/10/02 08:05:25;;;;;;;;;;;15.10;99.90;;;;;;4195934;28;19994;-57
2022/10/02 08:07:49;;;;;;;;;;;15.10;99.90;;;;;;4193677;28;19931;-57
2022/10/02 08:10:12;;;;;;;;;;;15.10;99.90;;;;;;4188617;28;19951;-58
2022/10/02 08:12:33;;;;;;;;;;;15.20;99.90;;;;;;4194081;28;20448;-57
2022/10/02 08:14:57;;;;;;;;;;;15.30;99.90;;;;;;4191840;28;19952;-58
2022/10/02 08:17:36;;;;;;;;;;;15.30;99.90;;;;;;4187515;28;20013;-57
2022/10/02 08:20:12;;;;;;;;;;;15.40;99.90;;;;;;4195334;28;19936;-57
2022/10/02 08:22:38;;;;;;;;;;;15.40;99.90;;;;;;4183254;28;19954;-58
2022/10/02 08:25:01;;;;;;;;;;;15.50;99.90;;;;;;4185222;28;20296;-57
2022/10/02 08:27:42;;;;;;;;;;;15.50;99.90;;;;;;4195545;28;19932;-57
2022/10/02 08:30:05;;;;;;;;;;;15.60;99.90;;;;;;4196703;28;20287;-58
2022/10/02 08:32:29;;;;;;;;;;;15.70;99.90;;;;;;4193003;28;20005;-58
2022/10/02 08:34:54;;;;;;;;;;;15.80;99.90;;;;;;4195214;28;20360;-57
2022/10/02 08:37:28;;;;;;;;;;;15.90;99.90;;;;;;4194750;28;20038;-57
2022/10/02 08:40:07;;;;;;;;;;;15.90;99.90;;;;;;4180932;28;19939;-57
2022/10/02 08:42:46;;;;;;;;;;;15.90;99.90;;;;;;4194129;28;19931;-58
2022/10/02 08:45:25;;;;;;;;;;;16.10;99.90;;;;;;4195648;28;19936;-57
2022/10/02 08:47:58;;;;;;;;;;;16.00;99.90;;;;;;4181505;28;19931;-57
2022/10/02 08:50:44;;;;;;;;;;;15.90;99.90;;;;;;4193860;28;20422;-57
2022/10/02 08:53:08;;;;;;;;;;;15.90;99.90;;;;;;4196895;28;20443;-58
2022/10/02 08:55:31;;;;;;;;;;;15.90;99.90;;;;;;4189288;28;20337;-57
2022/10/02 08:58:09;;;;;;;;;;;16.00;99.90;;;;;;4184117;28;20016;-57
2022/10/02 09:00:40;;;;;;;;;;;16.10;99.90;;;;;;4189165;28;20303;-58
2022/10/02 09:03:19;;;;;;;;;;;16.20;99.90;;;;;;4195346;28;20449;-58
2022/10/02 09:05:42;;;;;;;;;;;16.30;99.90;;;;;;4181885;28;20020;-58
2022/10/02 09:08:38;;;;;;;;;;;16.60;99.90;;;;;;4195318;28;20071;-58
2022/10/02 09:11:05;;;;;;;;;;;16.70;99.90;;;;;;4145667;28;19937;-57
2022/10/02 09:13:39;;;;;;;;;;;16.70;99.90;;;;;;4183888;28;19978;-58
2022/10/02 09:15:59;;;;;;;;;;;16.70;99.90;;;;;;4186047;28;19970;-57
2022/10/02 09:18:23;;;;;;;;;;;16.90;99.90;;;;;;4195874;28;19947;-57
2022/10/02 09:20:57;;;;;;;;;;;16.90;99.90;;;;;;4193837;28;19975;-58
2022/10/02 09:23:17;;;;;;;;;;;16.90;99.90;;;;;;4195756;28;20408;-57
2022/10/02 09:26:03;;;;;;;;;;;16.90;99.90;;;;;;4187878;28;19970;-57
2022/10/02 09:28:44;;;;;;;;;;;17.10;99.90;;;;;;4187249;28;19935;-57
2022/10/02 09:31:13;;;;;;;;;;;17.20;99.90;;;;;;4193309;28;19939;-57
2022/10/02 09:33:43;;;;;;;;;;;17.20;99.90;;;;;;4184937;28;20394;-57
2022/10/02 09:36:03;;;;;;;;;;;17.20;99.90;;;;;;4190247;28;19936;-58
2022/10/02 09:38:28;;;;;;;;;;;17.20;99.90;;;;;;4189350;28;20339;-58
2022/10/02 09:40:57;;;;;;;;;;;17.30;99.90;;;;;;4188815;28;19935;-57
2022/10/02 09:43:18;;;;;;;;;;;17.20;99.90;;;;;;4183308;28;19935;-57
2022/10/02 09:45:50;;;;;;;;;;;17.20;99.90;;;;;;4183402;28;19975;-57
2022/10/02 09:48:29;;;;;;;;;;;17.30;99.90;;;;;;4196348;28;19930;-59
2022/10/02 09:50:50;;;;;;;;;;;17.40;99.90;;;;;;4179803;28;19931;-57
2022/10/02 09:53:29;;;;;;;;;;;17.60;99.90;;;;;;4190519;28;20314;-58
2022/10/02 09:56:08;;;;;;;;;;;17.80;99.90;;;;;;4193862;28;19955;-57
2022/10/02 09:58:47;;;;;;;;;;;17.70;99.90;;;;;;4191178;28;20085;-57
2022/10/02 10:01:26;;;;;;;;;;;17.60;99.90;;;;;;4189002;28;20011;-57
2022/10/02 10:04:11;;;;;;;;;;;17.60;99.90;;;;;;4196048;28;19977;-57
2022/10/02 10:06:32;;;;;;;;;;;17.70;99.90;;;;;;4193418;28;19940;-58
2022/10/02 10:08:58;;;;;;;;;;;17.90;99.90;;;;;;4179617;28;20041;-58
2022/10/02 10:11:21;;;;;;;;;;;18.00;99.90;;;;;;4190383;28;19946;-57
2022/10/02 10:13:51;;;;;;;;;;;18.10;99.90;;;;;;4190726;28;19940;-58
2022/10/02 10:16:33;;;;;;;;;;;18.20;99.90;;;;;;4188348;28;19939;-58
2022/10/02 10:18:55;;;;;;;;;;;18.60;99.90;;;;;;4187713;28;20053;-58
2022/10/02 10:21:35;;;;;;;;;;;19.10;99.90;;;;;;4191701;28;20445;-58
2022/10/02 10:23:59;;;;;;;;;;;19.10;99.90;;;;;;4179198;28;19939;-59
2022/10/02 10:26:35;;;;;;;;;;;19.10;99.90;;;;;;4189542;28;20006;-58
2022/10/02 10:29:14;;;;;;;;;;;19.30;99.90;;;;;;4196508;28;19935;-59
2022/10/02 10:31:39;;;;;;;;;;;19.30;99.90;;;;;;4182454;28;20453;-58
2022/10/02 10:34:12;;;;;;;;;;;19.50;99.90;;;;;;4194211;28;19954;-58
2022/10/02 10:39:57;;;;;;;;;;;19.90;99.90;;;;;;4190221;28;20250;-59
2022/10/02 10:42:32;;;;;;;;;;;19.90;99.90;;;;;;4192047;28;19935;-57
2022/10/02 10:45:27;;;;;;;;;;;19.90;99.90;;;;;;4183755;28;19975;-58
2022/10/02 10:47:48;;;;;;;;;;;20.40;99.90;;;;;;4192493;28;19989;-58
2022/10/02 10:50:26;;;;;;;;;;;20.60;99.90;;;;;;4184116;28;19970;-57
2022/10/02 10:53:03;;;;;;;;;;;20.60;99.90;;;;;;4188860;28;19975;-58
2022/10/02 10:55:39;;;;;;;;;;;20.40;99.90;;;;;;4192657;28;19945;-58
2022/10/02 10:58:13;;;;;;;;;;;20.60;99.90;;;;;;4184615;28;19998;-58
2022/10/02 11:00:59;;;;;;;;;;;20.90;99.90;;;;;;4188753;28;19999;-58
2022/10/02 11:03:26;;;;;;;;;;;21.00;99.90;;;;;;4193038;28;20311;-58
2022/10/02 11:05:56;;;;;;;;;;;20.70;99.90;;;;;;4179317;28;19975;-58
2022/10/02 11:08:42;;;;;;;;;;;21.20;99.90;;;;;;4192000;28;19997;-59
2022/10/02 11:11:02;;;;;;;;;;;20.80;99.90;;;;;;4194811;28;19986;-58
2022/10/02 11:13:25;;;;;;;;;;;21.10;99.90;;;;;;4193642;28;20415;-58
2022/10/02 11:15:58;;;;;;;;;;;21.40;99.90;;;;;;4190663;28;20021;-59
2022/10/02 11:18:22;;;;;;;;;;;21.50;99.90;;;;;;4192894;28;19939;-58
2022/10/02 11:20:46;;;;;;;;;;;21.90;99.90;;;;;;4194353;28;19977;-58
2022/10/02 11:23:06;;;;;;;;;;;22.00;99.90;;;;;;4198695;28;20406;-58
2022/10/02 11:25:26;;;;;;;;;;;21.80;99.90;;;;;;4198860;28;19970;-59
2022/10/02 11:27:47;;;;;;;;;;;21.40;99.90;;;;;;4194110;28;19977;-59
2022/10/02 11:30:18;;;;;;;;;;;21.70;99.90;;;;;;4195569;28;19975;-59
2022/10/02 11:32:40;;;;;;;;;;;21.90;99.90;;;;;;4194748;28;20323;-59
2022/10/02 11:35:09;;;;;;;;;;;22.80;99.90;;;;;;4186580;28;20040;-58
2022/10/02 11:37:53;;;;;;;;;;;22.60;99.90;;;;;;4191524;28;19947;-58
2022/10/02 11:40:13;;;;;;;;;;;22.50;99.90;;;;;;4195928;28;20388;-59
2022/10/02 11:42:54;;;;;;;;;;;21.90;99.90;;;;;;4195643;28;19951;-59
2022/10/02 11:45:46;;;;;;;;;;;21.90;99.90;;;;;;4195770;28;19931;-58
2022/10/02 11:48:10;;;;;;;;;;;22.10;99.90;;;;;;4179285;28;19974;-58
2022/10/02 11:50:46;;;;;;;;;;;21.90;99.90;;;;;;4187422;28;19939;-58
2022/10/02 11:53:15;;;;;;;;;;;21.50;99.90;;;;;;4190954;28;20362;-58
2022/10/02 11:55:59;;;;;;;;;;;21.30;99.90;;;;;;4193303;28;19931;-58
2022/10/02 11:58:42;;;;;;;;;;;21.20;99.90;;;;;;4191112;28;19931;-58
2022/10/02 12:01:09;;;;;;;;;;;21.50;99.90;;;;;;4193414;28;20437;-58
2022/10/02 12:03:35;;;;;;;;;;;21.60;99.90;;;;;;4196791;28;19970;-58
2022/10/02 12:06:01;;;;;;;;;;;21.40;99.90;;;;;;4191584;28;19970;-58
2022/10/02 12:08:29;;;;;;;;;;;21.00;99.90;;;;;;4192705;28;20046;-58
2022/10/02 12:11:01;;;;;;;;;;;21.40;99.90;;;;;;4196606;28;19931;-58
2022/10/02 12:13:48;;;;;;;;;;;21.40;99.90;;;;;;4196729;28;19970;-58
2022/10/02 12:16:23;;;;;;;;;;;21.40;99.90;;;;;;4188880;28;20312;-58
2022/10/02 12:18:53;;;;;;;;;;;21.40;99.90;;;;;;4198247;28;20469;-58
2022/10/02 12:27:06;;;;;;;;;;;21.20;99.90;;;;;;4197865;28;19962;-59
2022/10/02 12:29:39;;;;;;;;;;;21.20;99.90;;;;;;4184252;28;19935;-57
2022/10/02 12:32:06;;;;;;;;;;;21.00;99.90;;;;;;4193913;28;19970;-58
2022/10/02 12:34:59;;;;;;;;;;;21.00;99.90;;;;;;4180767;28;19975;-58
2022/10/02 12:37:37;;;;;;;;;;;21.10;99.90;;;;;;4184290;28;19978;-59
2022/10/02 12:40:22;;;;;;;;;;;21.20;99.90;;;;;;4210175;28;19939;-58
2022/10/02 12:42:54;;;;;;;;;;;21.40;99.90;;;;;;4203852;28;20043;-59
2022/10/02 12:45:33;;;;;;;;;;;21.70;99.90;;;;;;4198181;28;20010;-59
2022/10/02 12:48:06;;;;;;;;;;;21.80;99.90;;;;;;4196622;28;20035;-59
2022/10/02 12:50:33;;;;;;;;;;;21.70;99.90;;;;;;4195507;28;19931;-59
2022/10/02 12:53:12;;;;;;;;;;;21.80;99.90;;;;;;4198312;28;19935;-59
2022/10/02 12:55:41;;;;;;;;;;;21.70;99.90;;;;;;4202235;28;19935;-58
2022/10/02 12:58:16;;;;;;;;;;;21.70;99.90;;;;;;4190421;28;19939;-58
2022/10/02 13:00:55;;;;;;;;;;;21.70;99.90;;;;;;4201165;28;19985;-58
2022/10/02 13:03:25;;;;;;;;;;;21.50;99.90;;;;;;4189004;28;20019;-58
2022/10/02 13:05:50;;;;;;;;;;;21.30;99.90;;;;;;4201988;28;19931;-59
2022/10/02 13:08:14;;;;;;;;;;;21.20;99.90;;;;;;4195572;28;19975;-58
2022/10/02 13:11:04;;;;;;;;;;;21.10;99.90;;;;;;4180641;28;19967;-58
2022/10/02 13:13:53;;;;;;;;;;;21.10;99.90;;;;;;4163920;28;19935;-59
2022/10/02 13:16:23;;;;;;;;;;;21.10;99.90;;;;;;4161669;28;20010;-59
2022/10/02 13:18:56;;;;;;;;;;;21.00;99.90;;;;;;4174331;28;20028;-59
2022/10/02 13:21:52;;;;;;;;;;;20.90;99.90;;;;;;4176710;28;19955;-58
2022/10/02 13:24:35;;;;;;;;;;;20.80;99.90;;;;;;4136432;28;20062;-58
2022/10/02 13:27:01;;;;;;;;;;;20.60;99.90;;;;;;4161748;28;20410;-58
2022/10/02 13:29:29;;;;;;;;;;;20.60;99.90;;;;;;4153372;28;20036;-58
2022/10/02 13:31:52;;;;;;;;;;;20.50;99.90;;;;;;4150674;28;20028;-57
2022/10/02 13:34:31;;;;;;;;;;;20.40;99.90;;;;;;4152360;28;19935;-58
2022/10/02 13:37:00;;;;;;;;;;;20.40;99.90;;;;;;4153380;28;20014;-58
2022/10/02 13:39:33;;;;;;;;;;;20.30;99.90;;;;;;4147267;28;20039;-58
2022/10/02 13:41:59;;;;;;;;;;;20.40;99.90;;;;;;4147637;28;20019;-58
2022/10/02 13:44:27;;;;;;;;;;;20.40;99.90;;;;;;4143201;28;19937;-57
2022/10/02 13:46:59;;;;;;;;;;;20.30;99.90;;;;;;4146099;28;20121;-58
2022/10/02 13:49:20;;;;;;;;;;;20.20;99.90;;;;;;4149858;28;20022;-58
2022/10/02 13:51:47;;;;;;;;;;;20.20;99.90;;;;;;4160562;28;20301;-58
2022/10/02 13:54:07;;;;;;;;;;;20.40;99.90;;;;;;4162361;28;20435;-57
2022/10/02 13:56:35;;;;;;;;;;;20.50;99.90;;;;;;4159604;28;19975;-58
2022/10/02 13:59:04;;;;;;;;;;;20.70;99.90;;;;;;4156273;28;20301;-58
2022/10/02 14:01:29;;;;;;;;;;;20.80;99.90;;;;;;4165117;28;19936;-58
2022/10/02 14:03:55;;;;;;;;;;;20.80;99.90;;;;;;4166622;28;20006;-58
2022/10/02 14:06:25;;;;;;;;;;;20.60;99.90;;;;;;4158205;28;19975;-58
2022/10/02 14:08:56;;;;;;;;;;;20.50;99.90;;;;;;4160894;28;19936;-58
2022/10/02 14:11:19;;;;;;;;;;;20.50;99.90;;;;;;4154732;28;19951;-58
2022/10/02 14:13:49;;;;;;;;;;;20.40;99.90;;;;;;4157526;28;19935;-58
2022/10/02 14:16:09;;;;;;;;;;;20.40;99.90;;;;;;4152444;28;20024;-58
2022/10/02 14:18:49;;;;;;;;;;;20.30;99.90;;;;;;4153918;28;20006;-58
2022/10/02 14:21:29;;;;;;;;;;;20.30;99.90;;;;;;4162785;28;19971;-58
2022/10/02 14:24:05;;;;;;;;;;;20.40;99.90;;;;;;4158016;28;19960;-58
2022/10/02 14:26:40;;;;;;;;;;;20.40;99.90;;;;;;4170036;28;20295;-58
2022/10/02 14:29:36;;;;;;;;;;;20.30;99.90;;;;;;4187701;28;19959;-57
2022/10/02 14:32:17;;;;;;;;;;;20.10;99.90;;;;;;4155130;28;19959;-58
2022/10/02 14:34:41;;;;;;;;;;;20.00;99.90;;;;;;4185812;28;20025;-57
2022/10/02 14:37:20;;;;;;;;;;;20.00;99.90;;;;;;4192572;28;19931;-58
2022/10/02 14:39:41;;;;;;;;;;;20.10;99.90;;;;;;4191664;28;20034;-58